Hawaii METAR Reports

 

PHOG - Kahului, Hawaii, USA
Distance from station: WNW 8mi, 13km
Updated: Mon, 29-May-2017 10:54pm HST
Few Clouds
Few Clouds
 Wind from calm
Wind: Calm
Temperature: 72°F , 22°C
Dew Point: 66°F , 19°C
Humidity: 83%
Barometer: 30.08 inHg , 1018.6 hPa
Clouds: Few Clouds
Visibility: 10 miles , 16 km
Cloud details: Few Clouds 2500 ft
2017/05/30 08:54 PHOG 300854Z 00000KT 10SM FEW025 22/19 A3008 RMK AO2 SLP192 T02220194 51014
PHJH - Lahaina/West Mau, Hawaii, USA
Distance from station: WNW 24mi, 39km
Updated: Mon, 29-May-2017 5:45pm HST
NOT Current
Haze, Mostly cloudy
Haze, Mostly cloudy
 Wind from SE
Wind: SE 3 mph , 6 km/h
Temperature: 84°F , 29°C
Heat Index: 85°F , 29°C
Dew Point: 64°F , 18°C
Humidity: 51%
Barometer: 30.02 inHg , 1016.6 hPa
Summary: Haze
Clouds: Mostly Cloudy
Visibility: 10 miles , 16 km
Cloud details: Partly Cloudy 4000 ft
Mostly Cloudy 5000 ft
2017/05/30 03:45 PHJH 300345Z 14003KT 10SM HZ SCT040 BKN050 29/18 A3002 RMK LAST
 
PHNY - Lanai City Airpo, Hawaii, USA
Distance from station: W 40mi, 65km
Updated: Mon, 29-May-2017 10:56pm HST
Clear
Clear
 Wind from E
Wind: E 6 mph , 9 km/h
Temperature: 68°F , 20°C
Dew Point: 66°F , 19°C
Humidity: 94%
Barometer: 30.16 inHg , 1021.3 hPa
Clouds: Clear
Visibility: 10 miles , 16 km
2017/05/30 08:56 PHNY 300856Z AUTO 08005KT 10SM CLR 20/19 A3016 RMK AO2 SLP193 T02000189 51011
PHMK - Molokai, Hawaii, USA
Distance from station: WNW 55mi, 88km
Updated: Mon, 29-May-2017 10:54pm HST
Clear
Clear
 Wind from NNE
Wind: NNE 6 mph , 9 km/h
Temperature: 73°F , 23°C
Dew Point: 70°F , 21°C
Humidity: 89%
Barometer: 30.11 inHg , 1019.6 hPa
Clouds: Clear
Visibility: 10 miles , 16 km
2017/05/30 08:54 PHMK 300854Z AUTO 02005KT 10SM CLR 23/21 A3011 RMK AO2 SLP197 T02280206 51011 TSNO
 
PHKO - Kailua/Kona, Hawaii, USA
Distance from station: SSE 79mi, 128km
Updated: Mon, 29-May-2017 10:53pm HST
Clear
Clear
 Wind from SE
Wind: SE 8 mph , 13 km/h
Temperature: 77°F , 25°C
Dew Point: 68°F , 20°C
Humidity: 74%
Barometer: 30.07 inHg , 1018.3 hPa
Clouds: Clear
Visibility: 10 miles , 16 km
2017/05/30 08:53 PHKO 300853Z AUTO 13007KT 10SM CLR 25/20 A3007 RMK AO2 SLP184 T02500200 51011 PWINO TSNO
PHSF - Bradshaw Aaf/Haw, Hawaii, USA
Distance from station: SE 90mi, 145km
Updated: Mon, 29-May-2017 10:56pm HST

 Wind from SE
Wind: SE 3 mph , 6 km/h
Visibility: 6 miles , 10 km
2017/05/30 08:56 PHSF 300856Z AUTO 13003KT 6SM M CLR 10/07 A3042 RMK AO2 SLP185 T01010073 50006 $
 
PHNG - Kaneohe Mcas, Hawaii, USA
Distance from station: WNW 102mi, 164km
Updated: Mon, 29-May-2017 6:57pm HST
NOT Current
Few Clouds
Few Clouds
 Wind from NE
Wind: NE 5 mph , 7 km/h
Temperature: 81°F , 27°C
Heat Index: 85°F , 29°C
Dew Point: 72°F , 22°C
Humidity: 74%
Barometer: 30.02 inHg , 1016.6 hPa
Clouds: Few Clouds
Visibility: 7 miles , 11 km
Cloud details: Few Clouds 2100 ft
2017/05/30 04:57 PHNG 300457Z 05004KT 7SM FEW021 27/22 A3002 RMK SLP162 T02670217
PHNL - Honolulu, Hawaii, USA
Distance from station: WNW 108mi, 174km
Updated: Mon, 29-May-2017 10:53pm HST
Few Clouds
Few Clouds
 Wind from calm
Wind: Calm
Temperature: 75°F , 24°C
Dew Point: 66°F , 19°C
Humidity: 74%
Barometer: 30.10 inHg , 1019.3 hPa
Clouds: Few Clouds
Visibility: 10 miles , 16 km
Cloud details: Few Clouds 3300 ft
2017/05/30 08:53 PHNL 300853Z 00000KT 10SM FEW033 24/19 A3010 RMK AO2 SLP191 T02440189 51012
 
PHTO - Hilo, Hawaii, USA
Distance from station: SE 114mi, 183km
Updated: Mon, 29-May-2017 10:53pm HST
Few Clouds
Few Clouds
 Wind from SSW
Wind: SSW 5 mph , 7 km/h
Temperature: 73°F , 23°C
Dew Point: 70°F , 21°C
Humidity: 89%
Barometer: 30.11 inHg , 1019.6 hPa
Clouds: Few Clouds
Visibility: 10 miles , 16 km
Cloud details: Few Clouds 7000 ft
2017/05/30 08:53 PHTO 300853Z AUTO 21004KT 10SM FEW070 23/21 A3011 RMK AO2 SLP194 T02280206 50010 TSNO
PHJR - Kalaeloa, Hawaii, USA
Distance from station: WNW 117mi, 189km
Updated: Mon, 29-May-2017 10:53pm HST
Clear
Clear
 Wind from NE
Wind: NE 5 mph , 7 km/h
Temperature: 73°F , 23°C
Dew Point: 64°F , 18°C
Humidity: 74%
Barometer: 30.11 inHg , 1019.6 hPa
Clouds: Clear
Visibility: 10 miles , 16 km
2017/05/30 08:53 PHJR 300853Z AUTO 05004KT 10SM CLR 23/18 A3011 RMK AO2 SLP202 T02330178 51013 TSNO
 
PHHI - Wheeler Afb/Oahu, Hawaii, USA
Distance from station: WNW 120mi, 193km
Updated: Mon, 29-May-2017 10:58pm HST
Clear
Clear
 Wind from WNW
Wind: WNW 5 mph , 7 km/h
Temperature: 70°F , 21°C
Dew Point: 64°F , 18°C
Humidity: 83%
Barometer: 30.10 inHg , 1019.3 hPa
Clouds: Clear
Visibility: 10 miles , 16 km
2017/05/30 08:58 PHHI 300858Z AUTO 30004KT 10SM CLR 21/18 A3010 RMK AO2 SLP182 T02050183 51009 $
PHLI - Lihue/Kauai Is, Hawaii, USA
Distance from station: WNW 209mi, 336km
Updated: Mon, 29-May-2017 10:53pm HST
Overcast
Overcast
 Wind from varies
Wind: varies 3 mph , 6 km/h
Temperature: 77°F , 25°C
Dew Point: 68°F , 20°C
Humidity: 74%
Barometer: 30.13 inHg , 1020.3 hPa
Clouds: Overcast
Visibility: 10 miles , 16 km
Cloud details: Partly Cloudy 2400 ft
Mostly Cloudy 3100 ft
Overcast 4200 ft
2017/05/30 08:53 PHLI 300853Z AUTO VRB03KT 10SM SCT024 BKN031 OVC042 25/20 A3013 RMK AO2 RAB15E31 SLP199 P0000 60000 T02500200 51014 TSNO
 
PHBK - Barking Sands/Ka, Hawaii, USA
Distance from station: WNW 237mi, 382km
Updated: Mon, 29-May-2017 10:56pm HST
Clear
Clear
 Wind from ENE
Wind: ENE 5 mph , 7 km/h
Barometer: 30.10 inHg , 1019.3 hPa
Clouds: Clear
Visibility: 10 miles , 16 km
2017/05/30 08:56 PHBK 300856Z AUTO 06004KT 10SM CLR A3010 RMK AO2 SLP196 51014 $